sensor_id;sensor_type;location;lat;lon;timestamp;P1;durP1;ratioP1;P2;durP2;ratioP2
72286;SDS011;60221;45.696;16.076;2022-10-10T00:00:45;9.10;;;2.75;;
72286;SDS011;60221;45.696;16.076;2022-10-10T00:03:14;7.12;;;2.60;;
72286;SDS011;60221;45.696;16.076;2022-10-10T00:05:42;6.45;;;2.47;;
72286;SDS011;60221;45.696;16.076;2022-10-10T00:08:09;8.23;;;2.80;;
72286;SDS011;60221;45.696;16.076;2022-10-10T00:10:36;8.35;;;2.67;;
72286;SDS011;60221;45.696;16.076;2022-10-10T00:13:03;6.50;;;2.45;;
72286;SDS011;60221;45.696;16.076;2022-10-10T00:15:31;9.68;;;2.80;;
72286;SDS011;60221;45.696;16.076;2022-10-10T00:17:57;7.50;;;2.70;;
72286;SDS011;60221;45.696;16.076;2022-10-10T00:20:23;8.53;;;2.50;;
72286;SDS011;60221;45.696;16.076;2022-10-10T00:22:49;7.22;;;2.50;;
72286;SDS011;60221;45.696;16.076;2022-10-10T00:25:16;8.45;;;2.90;;
72286;SDS011;60221;45.696;16.076;2022-10-10T00:27:43;6.25;;;2.50;;
72286;SDS011;60221;45.696;16.076;2022-10-10T00:30:09;8.40;;;2.35;;
72286;SDS011;60221;45.696;16.076;2022-10-10T00:32:36;8.30;;;2.70;;
72286;SDS011;60221;45.696;16.076;2022-10-10T00:35:02;7.47;;;2.60;;
72286;SDS011;60221;45.696;16.076;2022-10-10T00:37:30;5.45;;;1.98;;
72286;SDS011;60221;45.696;16.076;2022-10-10T00:39:56;6.45;;;2.40;;
72286;SDS011;60221;45.696;16.076;2022-10-10T00:42:22;9.68;;;2.45;;
72286;SDS011;60221;45.696;16.076;2022-10-10T00:48:03;9.05;;;2.75;;
72286;SDS011;60221;45.696;16.076;2022-10-10T00:50:56;8.48;;;2.67;;
72286;SDS011;60221;45.696;16.076;2022-10-10T00:53:27;9.43;;;2.77;;
72286;SDS011;60221;45.696;16.076;2022-10-10T00:56:10;6.55;;;2.47;;
72286;SDS011;60221;45.696;16.076;2022-10-10T00:58:40;10.07;;;2.70;;
72286;SDS011;60221;45.696;16.076;2022-10-10T01:01:10;7.67;;;3.17;;
72286;SDS011;60221;45.696;16.076;2022-10-10T01:03:37;10.30;;;3.90;;
72286;SDS011;60221;45.696;16.076;2022-10-10T01:06:03;9.60;;;3.55;;
72286;SDS011;60221;45.696;16.076;2022-10-10T01:08:31;9.83;;;3.27;;
72286;SDS011;60221;45.696;16.076;2022-10-10T01:14:07;9.63;;;3.00;;
72286;SDS011;60221;45.696;16.076;2022-10-10T01:31:53;6.53;;;2.10;;
72286;SDS011;60221;45.696;16.076;2022-10-10T01:34:29;8.80;;;2.30;;
72286;SDS011;60221;45.696;16.076;2022-10-10T01:37:06;5.58;;;1.92;;
72286;SDS011;60221;45.696;16.076;2022-10-10T01:39:52;7.53;;;2.53;;
72286;SDS011;60221;45.696;16.076;2022-10-10T01:42:39;7.60;;;2.33;;
72286;SDS011;60221;45.696;16.076;2022-10-10T01:45:08;9.15;;;2.77;;
72286;SDS011;60221;45.696;16.076;2022-10-10T01:47:35;12.68;;;3.22;;
72286;SDS011;60221;45.696;16.076;2022-10-10T01:50:02;8.35;;;2.87;;
72286;SDS011;60221;45.696;16.076;2022-10-10T01:52:50;7.97;;;2.70;;
72286;SDS011;60221;45.696;16.076;2022-10-10T01:55:23;8.75;;;3.50;;
72286;SDS011;60221;45.696;16.076;2022-10-10T02:01:15;8.28;;;2.75;;
72286;SDS011;60221;45.696;16.076;2022-10-10T02:03:45;7.00;;;2.65;;
72286;SDS011;60221;45.696;16.076;2022-10-10T02:09:08;7.10;;;3.12;;
72286;SDS011;60221;45.696;16.076;2022-10-10T02:11:44;8.25;;;2.90;;
72286;SDS011;60221;45.696;16.076;2022-10-10T02:14:13;12.28;;;3.60;;
72286;SDS011;60221;45.696;16.076;2022-10-10T02:16:43;10.00;;;3.85;;
72286;SDS011;60221;45.696;16.076;2022-10-10T02:22:11;9.65;;;3.85;;
72286;SDS011;60221;45.696;16.076;2022-10-10T02:24:39;9.35;;;3.50;;
72286;SDS011;60221;45.696;16.076;2022-10-10T02:27:07;8.25;;;3.62;;
72286;SDS011;60221;45.696;16.076;2022-10-10T02:29:41;9.33;;;3.35;;
72286;SDS011;60221;45.696;16.076;2022-10-10T02:32:21;9.10;;;3.57;;
72286;SDS011;60221;45.696;16.076;2022-10-10T02:34:52;7.37;;;3.20;;
72286;SDS011;60221;45.696;16.076;2022-10-10T02:37:22;10.70;;;3.52;;
72286;SDS011;60221;45.696;16.076;2022-10-10T02:39:52;10.72;;;3.22;;
72286;SDS011;60221;45.696;16.076;2022-10-10T02:42:22;7.95;;;3.20;;
72286;SDS011;60221;45.696;16.076;2022-10-10T02:44:51;8.53;;;3.70;;
72286;SDS011;60221;45.696;16.076;2022-10-10T02:47:18;8.75;;;3.10;;
72286;SDS011;60221;45.696;16.076;2022-10-10T02:49:44;10.35;;;3.33;;
72286;SDS011;60221;45.696;16.076;2022-10-10T02:52:10;8.65;;;3.00;;
72286;SDS011;60221;45.696;16.076;2022-10-10T02:54:40;6.75;;;3.00;;
72286;SDS011;60221;45.696;16.076;2022-10-10T02:57:07;8.40;;;2.67;;
72286;SDS011;60221;45.696;16.076;2022-10-10T02:59:33;8.60;;;2.83;;
72286;SDS011;60221;45.696;16.076;2022-10-10T03:01:59;7.90;;;3.12;;
72286;SDS011;60221;45.696;16.076;2022-10-10T03:04:25;8.53;;;3.37;;
72286;SDS011;60221;45.696;16.076;2022-10-10T03:06:53;9.70;;;3.50;;
72286;SDS011;60221;45.696;16.076;2022-10-10T03:09:20;7.95;;;3.47;;
72286;SDS011;60221;45.696;16.076;2022-10-10T03:11:46;9.15;;;3.30;;
72286;SDS011;60221;45.696;16.076;2022-10-10T03:14:12;7.65;;;3.15;;
72286;SDS011;60221;45.696;16.076;2022-10-10T03:16:38;10.58;;;3.52;;
72286;SDS011;60221;45.696;16.076;2022-10-10T03:19:04;8.40;;;3.67;;
72286;SDS011;60221;45.696;16.076;2022-10-10T03:21:33;10.32;;;3.58;;
72286;SDS011;60221;45.696;16.076;2022-10-10T03:24:00;9.13;;;3.83;;
72286;SDS011;60221;45.696;16.076;2022-10-10T03:26:27;10.18;;;3.67;;
72286;SDS011;60221;45.696;16.076;2022-10-10T03:28:53;7.37;;;3.33;;
72286;SDS011;60221;45.696;16.076;2022-10-10T03:31:19;9.07;;;3.57;;
72286;SDS011;60221;45.696;16.076;2022-10-10T03:33:45;8.10;;;3.42;;
72286;SDS011;60221;45.696;16.076;2022-10-10T03:36:11;8.85;;;3.30;;
72286;SDS011;60221;45.696;16.076;2022-10-10T03:38:38;12.33;;;4.40;;
72286;SDS011;60221;45.696;16.076;2022-10-10T03:41:05;22.45;;;8.60;;
72286;SDS011;60221;45.696;16.076;2022-10-10T03:43:31;16.93;;;7.50;;
72286;SDS011;60221;45.696;16.076;2022-10-10T03:45:57;17.75;;;7.05;;
72286;SDS011;60221;45.696;16.076;2022-10-10T03:48:23;16.27;;;6.83;;
72286;SDS011;60221;45.696;16.076;2022-10-10T03:50:49;14.83;;;4.67;;
72286;SDS011;60221;45.696;16.076;2022-10-10T03:53:15;9.25;;;3.00;;
72286;SDS011;60221;45.696;16.076;2022-10-10T03:55:42;11.73;;;3.00;;
72286;SDS011;60221;45.696;16.076;2022-10-10T03:58:08;8.40;;;2.40;;
72286;SDS011;60221;45.696;16.076;2022-10-10T04:00:35;7.25;;;2.30;;
72286;SDS011;60221;45.696;16.076;2022-10-10T04:03:03;6.87;;;2.37;;
72286;SDS011;60221;45.696;16.076;2022-10-10T04:05:34;8.87;;;2.00;;
72286;SDS011;60221;45.696;16.076;2022-10-10T04:08:03;7.40;;;2.00;;
72286;SDS011;60221;45.696;16.076;2022-10-10T04:10:30;8.80;;;2.30;;
72286;SDS011;60221;45.696;16.076;2022-10-10T04:12:57;8.30;;;2.30;;
72286;SDS011;60221;45.696;16.076;2022-10-10T04:15:24;5.15;;;1.90;;
72286;SDS011;60221;45.696;16.076;2022-10-10T04:17:50;8.90;;;2.33;;
72286;SDS011;60221;45.696;16.076;2022-10-10T04:20:16;7.15;;;1.92;;
72286;SDS011;60221;45.696;16.076;2022-10-10T04:22:43;6.80;;;1.80;;
72286;SDS011;60221;45.696;16.076;2022-10-10T04:25:10;7.78;;;1.90;;
72286;SDS011;60221;45.696;16.076;2022-10-10T04:27:37;8.33;;;1.85;;
72286;SDS011;60221;45.696;16.076;2022-10-10T04:30:03;6.50;;;1.83;;
72286;SDS011;60221;45.696;16.076;2022-10-10T04:32:32;7.60;;;1.95;;
72286;SDS011;60221;45.696;16.076;2022-10-10T04:34:58;6.47;;;2.00;;
72286;SDS011;60221;45.696;16.076;2022-10-10T04:37:24;5.27;;;2.00;;
72286;SDS011;60221;45.696;16.076;2022-10-10T04:39:50;8.95;;;1.90;;
72286;SDS011;60221;45.696;16.076;2022-10-10T04:42:16;7.37;;;2.27;;
72286;SDS011;60221;45.696;16.076;2022-10-10T04:44:42;6.58;;;2.17;;
72286;SDS011;60221;45.696;16.076;2022-10-10T04:47:09;5.67;;;1.90;;
72286;SDS011;60221;45.696;16.076;2022-10-10T04:49:35;7.33;;;2.20;;
72286;SDS011;60221;45.696;16.076;2022-10-10T04:52:01;7.90;;;2.37;;
72286;SDS011;60221;45.696;16.076;2022-10-10T04:54:27;8.00;;;2.10;;
72286;SDS011;60221;45.696;16.076;2022-10-10T04:56:53;8.23;;;2.02;;
72286;SDS011;60221;45.696;16.076;2022-10-10T04:59:19;5.25;;;2.08;;
72286;SDS011;60221;45.696;16.076;2022-10-10T05:01:45;6.90;;;2.15;;
72286;SDS011;60221;45.696;16.076;2022-10-10T05:04:11;5.27;;;1.63;;
72286;SDS011;60221;45.696;16.076;2022-10-10T05:06:38;5.90;;;2.15;;
72286;SDS011;60221;45.696;16.076;2022-10-10T05:09:04;9.28;;;2.37;;
72286;SDS011;60221;45.696;16.076;2022-10-10T05:11:30;7.50;;;1.63;;
72286;SDS011;60221;45.696;16.076;2022-10-10T05:13:56;10.00;;;2.33;;
72286;SDS011;60221;45.696;16.076;2022-10-10T05:16:22;5.50;;;2.20;;
72286;SDS011;60221;45.696;16.076;2022-10-10T05:18:49;6.42;;;2.17;;
72286;SDS011;60221;45.696;16.076;2022-10-10T05:21:15;8.55;;;2.40;;
72286;SDS011;60221;45.696;16.076;2022-10-10T05:23:41;9.25;;;2.60;;
72286;SDS011;60221;45.696;16.076;2022-10-10T05:26:07;7.70;;;3.17;;
72286;SDS011;60221;45.696;16.076;2022-10-10T05:28:34;12.15;;;3.42;;
72286;SDS011;60221;45.696;16.076;2022-10-10T05:31:05;10.38;;;3.75;;
72286;SDS011;60221;45.696;16.076;2022-10-10T05:33:31;10.53;;;3.95;;
72286;SDS011;60221;45.696;16.076;2022-10-10T05:36:06;9.18;;;4.05;;
72286;SDS011;60221;45.696;16.076;2022-10-10T05:38:36;9.40;;;3.87;;
72286;SDS011;60221;45.696;16.076;2022-10-10T05:41:04;10.53;;;3.85;;
72286;SDS011;60221;45.696;16.076;2022-10-10T05:43:33;10.32;;;3.40;;
72286;SDS011;60221;45.696;16.076;2022-10-10T05:46:00;8.78;;;3.22;;
72286;SDS011;60221;45.696;16.076;2022-10-10T05:48:26;7.22;;;2.92;;
72286;SDS011;60221;45.696;16.076;2022-10-10T05:50:53;9.53;;;3.03;;
72286;SDS011;60221;45.696;16.076;2022-10-10T05:53:23;8.03;;;2.25;;
72286;SDS011;60221;45.696;16.076;2022-10-10T05:55:51;7.37;;;2.65;;
72286;SDS011;60221;45.696;16.076;2022-10-10T05:58:19;8.18;;;2.70;;
72286;SDS011;60221;45.696;16.076;2022-10-10T06:00:45;7.30;;;2.62;;
72286;SDS011;60221;45.696;16.076;2022-10-10T06:03:12;6.50;;;2.73;;
72286;SDS011;60221;45.696;16.076;2022-10-10T06:05:42;8.30;;;2.85;;
72286;SDS011;60221;45.696;16.076;2022-10-10T06:08:12;11.75;;;4.05;;
72286;SDS011;60221;45.696;16.076;2022-10-10T06:10:40;13.08;;;3.10;;
72286;SDS011;60221;45.696;16.076;2022-10-10T06:13:11;9.35;;;4.22;;
72286;SDS011;60221;45.696;16.076;2022-10-10T06:15:40;11.57;;;4.60;;
72286;SDS011;60221;45.696;16.076;2022-10-10T06:18:07;10.28;;;5.15;;
72286;SDS011;60221;45.696;16.076;2022-10-10T06:20:34;11.80;;;5.17;;
72286;SDS011;60221;45.696;16.076;2022-10-10T06:23:02;10.15;;;4.85;;
72286;SDS011;60221;45.696;16.076;2022-10-10T06:25:35;11.68;;;5.72;;
72286;SDS011;60221;45.696;16.076;2022-10-10T06:27:59;12.47;;;4.13;;
72286;SDS011;60221;45.696;16.076;2022-10-10T06:30:26;9.70;;;4.45;;
72286;SDS011;60221;45.696;16.076;2022-10-10T06:32:52;15.58;;;5.17;;
72286;SDS011;60221;45.696;16.076;2022-10-10T06:35:18;11.37;;;4.37;;
72286;SDS011;60221;45.696;16.076;2022-10-10T06:37:45;14.35;;;4.40;;
72286;SDS011;60221;45.696;16.076;2022-10-10T06:40:11;12.82;;;4.65;;
72286;SDS011;60221;45.696;16.076;2022-10-10T06:42:37;14.13;;;3.70;;
72286;SDS011;60221;45.696;16.076;2022-10-10T06:45:04;14.00;;;3.70;;
72286;SDS011;60221;45.696;16.076;2022-10-10T06:47:32;15.87;;;4.10;;
72286;SDS011;60221;45.696;16.076;2022-10-10T06:49:58;11.78;;;3.80;;
72286;SDS011;60221;45.696;16.076;2022-10-10T06:52:24;13.25;;;3.95;;
72286;SDS011;60221;45.696;16.076;2022-10-10T06:54:50;10.28;;;3.55;;
72286;SDS011;60221;45.696;16.076;2022-10-10T06:57:16;19.23;;;4.40;;
72286;SDS011;60221;45.696;16.076;2022-10-10T06:59:42;9.35;;;3.77;;
72286;SDS011;60221;45.696;16.076;2022-10-10T07:02:10;13.90;;;4.93;;
72286;SDS011;60221;45.696;16.076;2022-10-10T07:04:38;11.15;;;4.03;;
72286;SDS011;60221;45.696;16.076;2022-10-10T07:07:04;14.20;;;3.52;;
72286;SDS011;60221;45.696;16.076;2022-10-10T07:09:30;11.15;;;2.55;;
72286;SDS011;60221;45.696;16.076;2022-10-10T07:11:56;10.17;;;3.03;;
72286;SDS011;60221;45.696;16.076;2022-10-10T07:14:22;8.88;;;3.77;;
72286;SDS011;60221;45.696;16.076;2022-10-10T07:16:49;9.90;;;3.30;;
72286;SDS011;60221;45.696;16.076;2022-10-10T07:19:15;13.15;;;4.25;;
72286;SDS011;60221;45.696;16.076;2022-10-10T07:21:43;15.10;;;4.70;;
72286;SDS011;60221;45.696;16.076;2022-10-10T07:24:09;14.00;;;4.58;;
72286;SDS011;60221;45.696;16.076;2022-10-10T07:26:35;14.77;;;5.20;;
72286;SDS011;60221;45.696;16.076;2022-10-10T07:29:03;19.57;;;6.97;;
72286;SDS011;60221;45.696;16.076;2022-10-10T07:31:31;11.63;;;5.15;;
72286;SDS011;60221;45.696;16.076;2022-10-10T07:33:58;12.58;;;4.58;;
72286;SDS011;60221;45.696;16.076;2022-10-10T07:36:24;11.80;;;4.73;;
72286;SDS011;60221;45.696;16.076;2022-10-10T07:38:51;10.45;;;4.50;;
72286;SDS011;60221;45.696;16.076;2022-10-10T07:41:19;9.53;;;4.00;;
72286;SDS011;60221;45.696;16.076;2022-10-10T07:43:46;12.23;;;4.17;;
72286;SDS011;60221;45.696;16.076;2022-10-10T07:46:17;10.75;;;4.42;;
72286;SDS011;60221;45.696;16.076;2022-10-10T07:48:44;18.40;;;4.33;;
72286;SDS011;60221;45.696;16.076;2022-10-10T07:51:13;11.03;;;3.90;;
72286;SDS011;60221;45.696;16.076;2022-10-10T07:53:41;12.03;;;3.15;;
72286;SDS011;60221;45.696;16.076;2022-10-10T07:56:08;10.23;;;4.25;;
72286;SDS011;60221;45.696;16.076;2022-10-10T07:58:36;7.55;;;3.22;;
72286;SDS011;60221;45.696;16.076;2022-10-10T08:01:04;13.50;;;4.00;;
72286;SDS011;60221;45.696;16.076;2022-10-10T08:03:33;12.40;;;4.35;;
72286;SDS011;60221;45.696;16.076;2022-10-10T08:06:07;15.40;;;5.58;;
72286;SDS011;60221;45.696;16.076;2022-10-10T08:08:40;15.15;;;4.90;;
72286;SDS011;60221;45.696;16.076;2022-10-10T08:11:09;9.55;;;4.65;;
72286;SDS011;60221;45.696;16.076;2022-10-10T08:13:36;12.13;;;4.80;;
72286;SDS011;60221;45.696;16.076;2022-10-10T08:16:04;11.43;;;4.35;;
72286;SDS011;60221;45.696;16.076;2022-10-10T08:18:30;8.83;;;4.08;;
72286;SDS011;60221;45.696;16.076;2022-10-10T08:21:07;10.05;;;4.92;;
72286;SDS011;60221;45.696;16.076;2022-10-10T08:23:35;9.18;;;4.50;;
72286;SDS011;60221;45.696;16.076;2022-10-10T08:26:03;10.97;;;4.00;;
72286;SDS011;60221;45.696;16.076;2022-10-10T08:28:33;10.68;;;5.15;;
72286;SDS011;60221;45.696;16.076;2022-10-10T08:31:04;9.58;;;3.90;;
72286;SDS011;60221;45.696;16.076;2022-10-10T08:33:33;6.85;;;3.15;;
72286;SDS011;60221;45.696;16.076;2022-10-10T08:36:10;14.23;;;5.25;;
72286;SDS011;60221;45.696;16.076;2022-10-10T08:38:32;9.63;;;4.50;;
72286;SDS011;60221;45.696;16.076;2022-10-10T08:41:00;12.20;;;4.35;;
72286;SDS011;60221;45.696;16.076;2022-10-10T08:43:55;11.45;;;4.92;;
72286;SDS011;60221;45.696;16.076;2022-10-10T08:49:12;13.85;;;4.90;;
72286;SDS011;60221;45.696;16.076;2022-10-10T08:55:18;11.43;;;4.50;;
72286;SDS011;60221;45.696;16.076;2022-10-10T08:57:57;11.43;;;4.80;;
72286;SDS011;60221;45.696;16.076;2022-10-10T09:00:43;12.60;;;6.28;;
72286;SDS011;60221;45.696;16.076;2022-10-10T09:05:57;12.70;;;6.83;;
72286;SDS011;60221;45.696;16.076;2022-10-10T09:14:32;8.93;;;4.40;;
72286;SDS011;60221;45.696;16.076;2022-10-10T09:17:31;10.03;;;3.55;;
72286;SDS011;60221;45.696;16.076;2022-10-10T09:23:48;10.15;;;4.45;;
72286;SDS011;60221;45.696;16.076;2022-10-10T09:25:56;10.48;;;3.90;;
72286;SDS011;60221;45.696;16.076;2022-10-10T09:31:17;10.72;;;5.10;;
72286;SDS011;60221;45.696;16.076;2022-10-10T09:34:03;10.87;;;4.67;;
72286;SDS011;60221;45.696;16.076;2022-10-10T09:36:38;8.48;;;4.30;;
72286;SDS011;60221;45.696;16.076;2022-10-10T09:39:27;11.20;;;5.00;;
72286;SDS011;60221;45.696;16.076;2022-10-10T09:42:12;10.28;;;4.75;;
72286;SDS011;60221;45.696;16.076;2022-10-10T09:44:42;9.45;;;3.92;;
72286;SDS011;60221;45.696;16.076;2022-10-10T09:47:10;9.93;;;4.13;;
72286;SDS011;60221;45.696;16.076;2022-10-10T09:49:41;12.33;;;5.78;;
72286;SDS011;60221;45.696;16.076;2022-10-10T09:55:00;12.37;;;5.40;;
72286;SDS011;60221;45.696;16.076;2022-10-10T09:57:34;12.03;;;5.40;;
72286;SDS011;60221;45.696;16.076;2022-10-10T10:00:21;14.10;;;6.10;;
72286;SDS011;60221;45.696;16.076;2022-10-10T10:02:48;11.95;;;5.37;;
72286;SDS011;60221;45.696;16.076;2022-10-10T10:05:31;10.58;;;4.87;;
72286;SDS011;60221;45.696;16.076;2022-10-10T10:07:57;10.30;;;4.45;;
72286;SDS011;60221;45.696;16.076;2022-10-10T10:10:24;13.22;;;5.08;;
72286;SDS011;60221;45.696;16.076;2022-10-10T10:12:54;9.97;;;5.37;;
72286;SDS011;60221;45.696;16.076;2022-10-10T10:15:22;12.53;;;6.15;;
72286;SDS011;60221;45.696;16.076;2022-10-10T10:18:11;11.75;;;5.65;;
72286;SDS011;60221;45.696;16.076;2022-10-10T10:20:50;14.85;;;6.08;;
72286;SDS011;60221;45.696;16.076;2022-10-10T10:23:24;11.25;;;6.55;;
72286;SDS011;60221;45.696;16.076;2022-10-10T10:26:01;16.07;;;7.20;;
72286;SDS011;60221;45.696;16.076;2022-10-10T10:28:31;12.85;;;6.85;;
72286;SDS011;60221;45.696;16.076;2022-10-10T10:31:10;10.23;;;5.12;;
72286;SDS011;60221;45.696;16.076;2022-10-10T10:34:12;12.50;;;5.62;;
72286;SDS011;60221;45.696;16.076;2022-10-10T10:42:54;11.85;;;6.12;;
72286;SDS011;60221;45.696;16.076;2022-10-10T11:00:15;12.78;;;6.25;;
72286;SDS011;60221;45.696;16.076;2022-10-10T11:17:15;13.98;;;7.17;;
72286;SDS011;60221;45.696;16.076;2022-10-10T11:19:53;11.68;;;6.50;;
72286;SDS011;60221;45.696;16.076;2022-10-10T11:22:45;15.37;;;7.33;;
72286;SDS011;60221;45.696;16.076;2022-10-10T11:30:24;13.32;;;7.58;;
72286;SDS011;60221;45.696;16.076;2022-10-10T11:38:16;12.73;;;7.40;;
72286;SDS011;60221;45.696;16.076;2022-10-10T11:41:02;14.35;;;8.53;;
72286;SDS011;60221;45.696;16.076;2022-10-10T11:43:56;14.47;;;7.72;;
72286;SDS011;60221;45.696;16.076;2022-10-10T11:46:55;11.93;;;6.60;;
72286;SDS011;60221;45.696;16.076;2022-10-10T11:49:17;14.17;;;6.40;;
72286;SDS011;60221;45.696;16.076;2022-10-10T11:52:14;13.88;;;7.95;;
72286;SDS011;60221;45.696;16.076;2022-10-10T11:58:24;13.90;;;7.35;;
72286;SDS011;60221;45.696;16.076;2022-10-10T12:03:48;12.30;;;7.27;;
72286;SDS011;60221;45.696;16.076;2022-10-10T12:06:24;14.80;;;8.00;;
72286;SDS011;60221;45.696;16.076;2022-10-10T12:11:37;15.45;;;9.05;;
72286;SDS011;60221;45.696;16.076;2022-10-10T12:14:19;14.18;;;9.00;;
72286;SDS011;60221;45.696;16.076;2022-10-10T12:16:49;16.90;;;10.37;;
72286;SDS011;60221;45.696;16.076;2022-10-10T12:19:17;16.57;;;8.08;;
72286;SDS011;60221;45.696;16.076;2022-10-10T12:21:52;16.42;;;10.38;;
72286;SDS011;60221;45.696;16.076;2022-10-10T12:24:22;17.98;;;10.88;;
72286;SDS011;60221;45.696;16.076;2022-10-10T12:42:39;18.53;;;14.07;;
72286;SDS011;60221;45.696;16.076;2022-10-10T12:47:59;18.92;;;12.15;;
72286;SDS011;60221;45.696;16.076;2022-10-10T12:50:36;18.20;;;13.18;;
72286;SDS011;60221;45.696;16.076;2022-10-10T12:55:47;21.73;;;14.60;;
72286;SDS011;60221;45.696;16.076;2022-10-10T13:00:51;20.72;;;14.38;;
72286;SDS011;60221;45.696;16.076;2022-10-10T13:08:41;19.87;;;14.83;;
72286;SDS011;60221;45.696;16.076;2022-10-10T13:11:09;20.97;;;15.00;;
72286;SDS011;60221;45.696;16.076;2022-10-10T13:13:39;22.30;;;13.83;;
72286;SDS011;60221;45.696;16.076;2022-10-10T13:16:16;17.37;;;12.50;;
72286;SDS011;60221;45.696;16.076;2022-10-10T13:21:25;14.10;;;10.07;;
72286;SDS011;60221;45.696;16.076;2022-10-10T13:23:58;23.95;;;13.65;;
72286;SDS011;60221;45.696;16.076;2022-10-10T13:26:34;17.62;;;12.58;;
72286;SDS011;60221;45.696;16.076;2022-10-10T13:29:04;24.77;;;18.27;;
72286;SDS011;60221;45.696;16.076;2022-10-10T13:31:41;21.48;;;13.95;;
72286;SDS011;60221;45.696;16.076;2022-10-10T13:34:08;19.57;;;12.47;;
72286;SDS011;60221;45.696;16.076;2022-10-10T13:36:40;17.02;;;12.65;;
72286;SDS011;60221;45.696;16.076;2022-10-10T13:39:12;18.17;;;13.32;;
72286;SDS011;60221;45.696;16.076;2022-10-10T13:41:44;15.88;;;12.35;;
72286;SDS011;60221;45.696;16.076;2022-10-10T13:44:13;16.90;;;12.55;;
72286;SDS011;60221;45.696;16.076;2022-10-10T13:46:43;19.20;;;12.73;;
72286;SDS011;60221;45.696;16.076;2022-10-10T13:49:23;16.67;;;12.63;;
72286;SDS011;60221;45.696;16.076;2022-10-10T13:52:36;18.37;;;12.63;;
72286;SDS011;60221;45.696;16.076;2022-10-10T13:54:35;35.70;;;24.02;;
72286;SDS011;60221;45.696;16.076;2022-10-10T13:59:50;20.73;;;15.73;;
72286;SDS011;60221;45.696;16.076;2022-10-10T14:02:31;19.37;;;13.65;;
72286;SDS011;60221;45.696;16.076;2022-10-10T14:05:05;20.40;;;13.53;;
72286;SDS011;60221;45.696;16.076;2022-10-10T14:07:36;18.75;;;12.68;;
72286;SDS011;60221;45.696;16.076;2022-10-10T14:10:05;16.62;;;12.25;;
72286;SDS011;60221;45.696;16.076;2022-10-10T14:12:39;15.47;;;11.77;;
72286;SDS011;60221;45.696;16.076;2022-10-10T14:16:08;16.35;;;12.40;;
72286;SDS011;60221;45.696;16.076;2022-10-10T14:17:58;17.00;;;12.05;;
72286;SDS011;60221;45.696;16.076;2022-10-10T14:20:24;17.25;;;10.85;;
72286;SDS011;60221;45.696;16.076;2022-10-10T14:22:50;17.90;;;12.20;;
72286;SDS011;60221;45.696;16.076;2022-10-10T14:25:16;15.38;;;12.68;;
72286;SDS011;60221;45.696;16.076;2022-10-10T14:27:42;17.02;;;12.43;;
72286;SDS011;60221;45.696;16.076;2022-10-10T14:30:09;15.38;;;11.57;;
72286;SDS011;60221;45.696;16.076;2022-10-10T14:32:39;18.50;;;12.23;;
72286;SDS011;60221;45.696;16.076;2022-10-10T14:35:05;18.98;;;13.38;;
72286;SDS011;60221;45.696;16.076;2022-10-10T14:37:32;18.40;;;12.82;;
72286;SDS011;60221;45.696;16.076;2022-10-10T14:40:00;16.57;;;11.38;;
72286;SDS011;60221;45.696;16.076;2022-10-10T14:42:28;15.58;;;11.85;;
72286;SDS011;60221;45.696;16.076;2022-10-10T14:44:54;16.03;;;11.20;;
72286;SDS011;60221;45.696;16.076;2022-10-10T14:47:21;17.20;;;10.93;;
72286;SDS011;60221;45.696;16.076;2022-10-10T14:49:49;17.32;;;12.40;;
72286;SDS011;60221;45.696;16.076;2022-10-10T14:52:20;20.50;;;13.58;;
72286;SDS011;60221;45.696;16.076;2022-10-10T14:54:47;16.25;;;11.20;;
72286;SDS011;60221;45.696;16.076;2022-10-10T14:57:13;20.53;;;11.37;;
72286;SDS011;60221;45.696;16.076;2022-10-10T14:59:39;20.05;;;15.15;;
72286;SDS011;60221;45.696;16.076;2022-10-10T15:02:05;23.33;;;14.40;;
72286;SDS011;60221;45.696;16.076;2022-10-10T15:04:31;18.05;;;12.73;;
72286;SDS011;60221;45.696;16.076;2022-10-10T15:06:57;17.55;;;12.55;;
72286;SDS011;60221;45.696;16.076;2022-10-10T15:09:23;15.07;;;11.57;;
72286;SDS011;60221;45.696;16.076;2022-10-10T15:11:50;16.12;;;11.12;;
72286;SDS011;60221;45.696;16.076;2022-10-10T15:14:16;17.12;;;11.65;;
72286;SDS011;60221;45.696;16.076;2022-10-10T15:16:42;17.23;;;11.15;;
72286;SDS011;60221;45.696;16.076;2022-10-10T15:19:08;20.27;;;12.07;;
72286;SDS011;60221;45.696;16.076;2022-10-10T15:21:34;18.42;;;11.57;;
72286;SDS011;60221;45.696;16.076;2022-10-10T15:24:00;17.90;;;11.90;;
72286;SDS011;60221;45.696;16.076;2022-10-10T15:26:26;19.73;;;11.53;;
72286;SDS011;60221;45.696;16.076;2022-10-10T15:28:52;17.15;;;11.40;;
72286;SDS011;60221;45.696;16.076;2022-10-10T15:31:24;14.70;;;9.85;;
72286;SDS011;60221;45.696;16.076;2022-10-10T15:33:55;19.47;;;11.33;;
72286;SDS011;60221;45.696;16.076;2022-10-10T15:36:22;17.40;;;11.25;;
72286;SDS011;60221;45.696;16.076;2022-10-10T15:38:48;19.55;;;11.55;;
72286;SDS011;60221;45.696;16.076;2022-10-10T15:41:14;19.75;;;12.05;;
72286;SDS011;60221;45.696;16.076;2022-10-10T15:43:43;18.30;;;12.43;;
72286;SDS011;60221;45.696;16.076;2022-10-10T15:46:14;17.53;;;12.73;;
72286;SDS011;60221;45.696;16.076;2022-10-10T15:48:40;17.98;;;12.05;;
72286;SDS011;60221;45.696;16.076;2022-10-10T15:51:07;17.37;;;11.55;;
72286;SDS011;60221;45.696;16.076;2022-10-10T15:53:33;17.98;;;11.55;;
72286;SDS011;60221;45.696;16.076;2022-10-10T15:56:05;17.75;;;11.80;;
72286;SDS011;60221;45.696;16.076;2022-10-10T15:58:38;17.13;;;11.50;;
72286;SDS011;60221;45.696;16.076;2022-10-10T16:01:16;20.35;;;12.20;;
72286;SDS011;60221;45.696;16.076;2022-10-10T16:03:45;18.90;;;12.37;;
72286;SDS011;60221;45.696;16.076;2022-10-10T16:06:13;22.93;;;13.20;;
72286;SDS011;60221;45.696;16.076;2022-10-10T16:08:42;19.32;;;12.65;;
72286;SDS011;60221;45.696;16.076;2022-10-10T16:11:10;19.03;;;12.90;;
72286;SDS011;60221;45.696;16.076;2022-10-10T16:13:40;20.82;;;13.38;;
72286;SDS011;60221;45.696;16.076;2022-10-10T16:16:10;24.90;;;13.98;;
72286;SDS011;60221;45.696;16.076;2022-10-10T16:18:37;22.00;;;13.72;;
72286;SDS011;60221;45.696;16.076;2022-10-10T16:21:05;23.80;;;14.43;;
72286;SDS011;60221;45.696;16.076;2022-10-10T16:23:36;20.40;;;14.07;;
72286;SDS011;60221;45.696;16.076;2022-10-10T16:26:09;22.32;;;14.55;;
72286;SDS011;60221;45.696;16.076;2022-10-10T16:28:34;21.55;;;13.50;;
72286;SDS011;60221;45.696;16.076;2022-10-10T16:31:04;21.80;;;13.13;;
72286;SDS011;60221;45.696;16.076;2022-10-10T16:33:34;19.05;;;13.45;;
72286;SDS011;60221;45.696;16.076;2022-10-10T16:36:16;22.75;;;14.63;;
72286;SDS011;60221;45.696;16.076;2022-10-10T16:38:46;20.92;;;13.53;;
72286;SDS011;60221;45.696;16.076;2022-10-10T16:41:14;22.30;;;13.80;;
72286;SDS011;60221;45.696;16.076;2022-10-10T16:43:44;19.63;;;12.80;;
72286;SDS011;60221;45.696;16.076;2022-10-10T16:46:13;19.57;;;13.53;;
72286;SDS011;60221;45.696;16.076;2022-10-10T16:48:43;20.50;;;12.85;;
72286;SDS011;60221;45.696;16.076;2022-10-10T16:51:11;19.02;;;12.73;;
72286;SDS011;60221;45.696;16.076;2022-10-10T16:53:41;22.10;;;13.53;;
72286;SDS011;60221;45.696;16.076;2022-10-10T16:56:09;22.37;;;13.67;;
72286;SDS011;60221;45.696;16.076;2022-10-10T16:58:39;20.57;;;14.10;;
72286;SDS011;60221;45.696;16.076;2022-10-10T17:01:07;21.60;;;13.50;;
72286;SDS011;60221;45.696;16.076;2022-10-10T17:03:36;23.70;;;13.98;;